KGEG/GEG METAR and TAF weather

Enter ICAO airport designator
Station Type Date Time Source
KGEG METAR 2020/10/20 16:53 UTC NOAA

KGEG 201653Z 15006KT 10SM BKN070 BKN230 04/00 A3013 RMK AO2 SLP213 T00390000


Station Type Date Time Source
KGEG Decoded METAR 2020/10/20 16:53 UTC NOAA

SPOKANE INTERNATIONAL AIRPORT , WA, United States (KGEG) 47-37N 117-32W 735M
Oct 20, 2020 - 12:53 PM EDT / 2020.10.20 1653 UTC
Wind: from the SSE (150 degrees) at 7 MPH (6 KT):0
Visibility: 10 mile(s):0
Sky conditions: mostly cloudy
Temperature: 39.0 F (3.9 C)
Dew Point: 32.0 F (0.0 C)
Relative Humidity: 75%
Pressure (altimeter): 30.13 in. Hg (1020 hPa)
ob: KGEG 201653Z 15006KT 10SM BKN070 BKN230 04/00 A3013 RMK AO2 SLP213 T00390000
cycle: 17

Station Type Date Time Source
KGEG TAF 2020/10/20 18:42 UTC NOAA

TAF KGEG 201739Z 2018/2118 15006KT P6SM BKN070 BKN230
FM202100 21008KT P6SM SCT045 BKN080
FM211200 22006KT P6SM VCSH SCT020 OVC050
TEMPO 2112/2115 6SM -SHRASN BR BKN020 OVC040

Example: see airport list